Time;durP1;ratioP1;P1;durP2;ratioP2;P2;SDS_P1;SDS_P2;PMS_P1;PMS_P2;Temp;Humidity;BMP_temperature;BMP_pressure;BME280_temperature;BME280_humidity;BME280_pressure;Samples;Min_cycle;Max_cycle;Signal;HPM_P1;HPM_P2
2023/10/29 00:02:13;;;;;;;;;;;10.80;99.90;;;;;;5009693;28;19921;-72
2023/10/29 00:04:39;;;;;;;;;;;10.80;99.90;;;;;;5007337;28;20384;-72
2023/10/29 00:07:05;;;;;;;;;;;10.80;99.90;;;;;;5006392;28;20011;-72
2023/10/29 00:09:30;;;;;;;;;;;10.80;99.90;;;;;;5056710;28;19928;-73
2023/10/29 00:11:57;;;;;;;;;;;10.80;99.90;;;;;;5034785;28;19924;-74
2023/10/29 00:14:23;;;;;;;;;;;10.90;99.90;;;;;;5055286;28;19921;-73
2023/10/29 00:16:49;;;;;;;;;;;10.80;99.90;;;;;;4976953;28;19921;-73
2023/10/29 00:19:15;;;;;;;;;;;10.90;99.90;;;;;;4985896;28;20300;-72
2023/10/29 00:21:41;;;;;;;;;;;10.90;99.90;;;;;;5015886;28;19920;-74
2023/10/29 00:24:07;;;;;;;;;;;10.90;99.90;;;;;;5029583;28;19943;-73
2023/10/29 00:26:33;;;;;;;;;;;10.90;99.90;;;;;;5008805;28;19924;-73
2023/10/29 00:28:59;;;;;;;;;;;10.90;99.90;;;;;;5016057;28;19924;-72
2023/10/29 00:31:25;;;;;;;;;;;11.00;99.90;;;;;;5026977;28;19924;-73
2023/10/29 00:33:51;;;;;;;;;;;11.00;99.90;;;;;;5031510;28;19928;-72
2023/10/29 00:36:16;;;;;;;;;;;11.00;99.90;;;;;;5018953;28;19929;-72
2023/10/29 00:38:42;;;;;;;;;;;11.00;99.90;;;;;;5030031;28;19935;-73
2023/10/29 00:41:08;;;;;;;;;;;11.00;99.90;;;;;;5012094;28;19931;-72
2023/10/29 00:43:40;;;;;;;;;;;11.00;99.90;;;;;;5015926;28;19929;-71
2023/10/29 00:46:07;;;;;;;;;;;11.10;99.90;;;;;;5010076;28;19983;-72
2023/10/29 00:48:34;;;;;;;;;;;11.00;99.90;;;;;;5033387;28;19928;-72
2023/10/29 00:51:00;;;;;;;;;;;11.10;99.90;;;;;;5009970;28;19920;-73
2023/10/29 00:53:27;;;;;;;;;;;11.10;99.90;;;;;;5037426;28;19928;-73
2023/10/29 00:55:53;;;;;;;;;;;11.00;99.90;;;;;;4990038;28;19924;-72
2023/10/29 00:58:19;;;;;;;;;;;11.10;99.90;;;;;;5033120;28;19925;-72
2023/10/29 01:00:45;;;;;;;;;;;11.00;99.90;;;;;;5030153;28;19931;-72
2023/10/29 01:03:11;;;;;;;;;;;11.10;99.90;;;;;;5009225;28;19928;-73
2023/10/29 01:05:38;;;;;;;;;;;11.10;99.90;;;;;;5022216;28;20268;-73
2023/10/29 01:08:05;;;;;;;;;;;11.10;99.90;;;;;;5002629;28;19937;-74
2023/10/29 01:10:32;;;;;;;;;;;11.20;99.90;;;;;;4990676;28;19921;-73
2023/10/29 01:12:57;;;;;;;;;;;11.20;99.90;;;;;;5002122;28;20312;-73
2023/10/29 01:15:23;;;;;;;;;;;11.20;99.90;;;;;;4986323;28;19929;-73
2023/10/29 01:17:49;;;;;;;;;;;11.20;99.90;;;;;;5035956;28;19944;-73
2023/10/29 01:20:15;;;;;;;;;;;11.30;99.90;;;;;;4983196;28;19926;-72
2023/10/29 01:22:41;;;;;;;;;;;11.20;99.90;;;;;;5027113;28;20640;-72
2023/10/29 01:25:09;;;;;;;;;;;11.30;99.90;;;;;;4994248;28;19966;-71
2023/10/29 01:27:36;;;;;;;;;;;11.40;99.90;;;;;;5014601;28;19922;-72
2023/10/29 01:30:02;;;;;;;;;;;11.30;99.90;;;;;;4979972;28;19926;-72
2023/10/29 01:32:28;;;;;;;;;;;11.40;99.90;;;;;;5034966;28;19929;-72
2023/10/29 01:34:54;;;;;;;;;;;11.40;99.90;;;;;;5012186;28;19928;-73
2023/10/29 01:37:20;;;;;;;;;;;11.50;99.90;;;;;;5027704;28;19929;-73
2023/10/29 01:39:46;;;;;;;;;;;11.50;99.90;;;;;;5007123;28;19936;-73
2023/10/29 01:42:12;;;;;;;;;;;11.60;99.90;;;;;;4989480;28;20517;-72
2023/10/29 01:44:38;;;;;;;;;;;11.60;99.90;;;;;;5006173;28;19964;-72
2023/10/29 01:47:04;;;;;;;;;;;11.70;99.90;;;;;;5039915;28;19920;-73
2023/10/29 01:49:31;;;;;;;;;;;11.80;99.90;;;;;;5028295;28;19929;-72
2023/10/29 01:51:57;;;;;;;;;;;11.80;99.90;;;;;;5004649;28;20402;-70
2023/10/29 01:54:23;;;;;;;;;;;11.80;99.90;;;;;;5023768;28;19925;-71
2023/10/29 01:56:49;;;;;;;;;;;11.90;99.90;;;;;;4973725;28;19931;-72
2023/10/29 01:59:14;;;;;;;;;;;11.90;99.90;;;;;;5022593;28;19932;-72
2023/10/29 02:01:41;;;;;;;;;;;12.00;99.90;;;;;;5005683;28;19967;-72
2023/10/29 02:04:10;;;;;;;;;;;11.90;99.90;;;;;;5032222;28;19932;-73
2023/10/29 02:06:39;;;;;;;;;;;11.90;99.90;;;;;;5012646;28;19920;-72
2023/10/29 02:09:12;;;;;;;;;;;11.90;99.90;;;;;;5010385;28;19940;-71
2023/10/29 02:11:38;;;;;;;;;;;12.00;99.90;;;;;;5006284;28;20344;-72
2023/10/29 02:14:05;;;;;;;;;;;12.00;99.90;;;;;;5044310;28;19928;-72
2023/10/29 02:16:31;;;;;;;;;;;12.00;99.90;;;;;;5003533;28;19928;-72
2023/10/29 02:18:57;;;;;;;;;;;12.00;99.90;;;;;;4990567;28;19933;-72
2023/10/29 02:21:24;;;;;;;;;;;12.00;99.90;;;;;;4988570;28;20527;-72
2023/10/29 02:23:50;;;;;;;;;;;12.10;99.90;;;;;;5026502;28;19929;-73
2023/10/29 02:26:16;;;;;;;;;;;12.10;99.90;;;;;;4991716;28;20376;-73
2023/10/29 02:28:42;;;;;;;;;;;12.00;99.90;;;;;;5032480;28;19932;-73
2023/10/29 02:31:15;;;;;;;;;;;12.10;99.90;;;;;;4999657;28;19955;-71
2023/10/29 02:33:41;;;;;;;;;;;11.90;99.90;;;;;;5004168;28;19937;-72
2023/10/29 02:36:07;;;;;;;;;;;11.90;99.90;;;;;;4990328;28;19939;-72
2023/10/29 02:38:33;;;;;;;;;;;11.90;99.90;;;;;;4994669;28;19921;-71
2023/10/29 02:40:59;;;;;;;;;;;11.90;99.90;;;;;;4996815;28;19935;-72
2023/10/29 02:43:26;;;;;;;;;;;11.90;99.90;;;;;;5031419;28;19943;-72
2023/10/29 02:45:52;;;;;;;;;;;11.90;99.90;;;;;;5008663;28;19927;-72
2023/10/29 02:48:20;;;;;;;;;;;11.90;99.90;;;;;;5042224;28;19925;-72
2023/10/29 02:50:47;;;;;;;;;;;11.90;99.90;;;;;;5006024;28;20592;-73
2023/10/29 02:53:13;;;;;;;;;;;11.90;99.90;;;;;;5050372;28;19932;-73
2023/10/29 02:55:39;;;;;;;;;;;11.90;99.90;;;;;;4996214;28;19929;-72
2023/10/29 02:58:05;;;;;;;;;;;11.90;99.90;;;;;;5020174;28;19936;-73
2023/10/29 03:00:32;;;;;;;;;;;11.90;99.90;;;;;;4994601;28;19921;-73
2023/10/29 03:02:58;;;;;;;;;;;11.90;99.90;;;;;;5016155;28;19925;-71
2023/10/29 03:05:23;;;;;;;;;;;11.90;99.90;;;;;;5016569;28;19947;-72
2023/10/29 03:07:49;;;;;;;;;;;12.00;99.90;;;;;;5066300;28;19921;-70
2023/10/29 03:10:15;;;;;;;;;;;11.90;99.90;;;;;;4997438;28;25138;-71
2023/10/29 03:12:41;;;;;;;;;;;12.00;99.90;;;;;;5035539;28;19922;-70
2023/10/29 03:15:07;;;;;;;;;;;12.00;99.90;;;;;;4984573;28;19935;-71
2023/10/29 03:17:33;;;;;;;;;;;12.10;99.90;;;;;;5022176;28;19924;-72
2023/10/29 03:19:59;;;;;;;;;;;12.10;99.90;;;;;;4992273;28;19973;-71
2023/10/29 03:22:25;;;;;;;;;;;12.10;99.90;;;;;;5019021;28;20376;-71
2023/10/29 03:24:51;;;;;;;;;;;12.10;99.90;;;;;;5002226;28;19940;-71
2023/10/29 03:27:17;;;;;;;;;;;12.10;99.90;;;;;;4994700;28;19932;-71
2023/10/29 03:29:43;;;;;;;;;;;12.10;99.90;;;;;;5033777;28;19929;-70
2023/10/29 03:32:09;;;;;;;;;;;12.20;99.90;;;;;;5008392;28;19921;-71
2023/10/29 03:34:35;;;;;;;;;;;12.20;99.90;;;;;;5055460;28;19925;-71
2023/10/29 03:37:01;;;;;;;;;;;12.20;99.90;;;;;;4998890;28;19922;-72
2023/10/29 03:39:28;;;;;;;;;;;12.20;99.90;;;;;;5009206;28;20395;-71
2023/10/29 03:41:55;;;;;;;;;;;12.30;99.90;;;;;;4991578;28;19928;-71
2023/10/29 03:44:21;;;;;;;;;;;12.30;99.90;;;;;;5012547;28;19937;-72
2023/10/29 03:46:51;;;;;;;;;;;12.30;99.90;;;;;;4996777;28;20587;-71
2023/10/29 03:49:18;;;;;;;;;;;12.30;99.90;;;;;;5000041;28;19926;-72
2023/10/29 03:51:44;;;;;;;;;;;12.40;99.90;;;;;;5003758;28;20001;-73
2023/10/29 03:54:11;;;;;;;;;;;12.40;99.90;;;;;;5004668;28;19929;-73
2023/10/29 03:56:36;;;;;;;;;;;12.50;99.90;;;;;;4991300;28;19928;-72
2023/10/29 03:59:02;;;;;;;;;;;12.50;99.90;;;;;;4990573;28;19926;-73
2023/10/29 04:01:29;;;;;;;;;;;12.50;99.90;;;;;;4981337;28;19929;-72
2023/10/29 04:03:55;;;;;;;;;;;12.50;99.90;;;;;;5007417;28;19964;-72
2023/10/29 04:06:21;;;;;;;;;;;12.60;99.90;;;;;;4988367;28;20525;-72
2023/10/29 04:08:47;;;;;;;;;;;12.60;99.90;;;;;;5017068;28;20335;-72
2023/10/29 04:11:13;;;;;;;;;;;12.70;99.90;;;;;;4980418;28;19928;-73
2023/10/29 04:13:39;;;;;;;;;;;12.70;99.90;;;;;;5031892;28;19921;-73
2023/10/29 04:16:06;;;;;;;;;;;12.70;99.90;;;;;;5005611;28;19924;-74
2023/10/29 04:18:33;;;;;;;;;;;12.80;99.90;;;;;;5025835;28;19925;-71
2023/10/29 04:21:03;;;;;;;;;;;12.80;99.90;;;;;;5007544;28;19924;-72
2023/10/29 04:23:29;;;;;;;;;;;12.80;99.90;;;;;;5052734;28;20581;-70
2023/10/29 04:25:55;;;;;;;;;;;12.90;99.90;;;;;;4998011;28;20554;-71
2023/10/29 04:28:21;;;;;;;;;;;12.90;99.90;;;;;;5009303;28;19922;-70
2023/10/29 04:30:48;;;;;;;;;;;12.90;99.90;;;;;;4998614;28;20389;-70
2023/10/29 04:33:13;;;;;;;;;;;12.90;99.90;;;;;;5025782;28;19929;-72
2023/10/29 04:35:39;;;;;;;;;;;12.90;99.90;;;;;;4996308;28;20288;-73
2023/10/29 04:38:05;;;;;;;;;;;12.90;99.90;;;;;;5023596;28;19928;-74
2023/10/29 04:40:31;;;;;;;;;;;12.70;99.90;;;;;;4981501;28;19991;-74
2023/10/29 04:42:57;;;;;;;;;;;12.70;99.90;;;;;;5011580;28;19930;-74
2023/10/29 04:45:23;;;;;;;;;;;12.60;99.90;;;;;;4979419;28;19931;-75
2023/10/29 04:47:49;;;;;;;;;;;12.60;99.90;;;;;;5014140;28;19945;-74
2023/10/29 04:50:15;;;;;;;;;;;12.60;99.90;;;;;;4958320;28;20442;-74
2023/10/29 04:52:41;;;;;;;;;;;12.50;99.90;;;;;;5010266;28;20415;-73
2023/10/29 04:55:08;;;;;;;;;;;12.40;99.90;;;;;;4978525;28;19929;-74
2023/10/29 04:57:35;;;;;;;;;;;12.30;99.90;;;;;;5034769;28;20529;-72
2023/10/29 05:00:01;;;;;;;;;;;12.20;99.90;;;;;;5027153;28;20016;-73
2023/10/29 05:02:27;;;;;;;;;;;12.10;99.90;;;;;;5036866;28;19932;-73
2023/10/29 05:04:53;;;;;;;;;;;12.00;99.90;;;;;;5012810;28;19941;-73
2023/10/29 05:07:22;;;;;;;;;;;11.80;99.90;;;;;;5016838;28;19926;-75
2023/10/29 05:09:48;;;;;;;;;;;11.80;99.90;;;;;;5008056;28;19929;-76
2023/10/29 05:12:15;;;;;;;;;;;11.60;99.90;;;;;;5008789;28;20350;-74
2023/10/29 05:14:40;;;;;;;;;;;11.40;99.90;;;;;;5002800;28;19929;-73
2023/10/29 05:17:07;;;;;;;;;;;11.30;99.90;;;;;;4998409;28;19930;-73
2023/10/29 05:19:32;;;;;;;;;;;11.30;99.90;;;;;;5005838;28;19929;-73
2023/10/29 05:21:58;;;;;;;;;;;11.20;99.90;;;;;;5040516;28;20095;-73
2023/10/29 05:24:24;;;;;;;;;;;11.20;99.90;;;;;;5028139;28;20215;-74
2023/10/29 05:26:50;;;;;;;;;;;11.30;99.90;;;;;;4997395;28;19929;-73
2023/10/29 05:29:16;;;;;;;;;;;11.40;99.90;;;;;;5006624;28;19922;-72
2023/10/29 05:31:42;;;;;;;;;;;11.50;99.90;;;;;;5010707;28;19921;-71
2023/10/29 05:34:08;;;;;;;;;;;11.50;99.90;;;;;;5004609;28;19921;-72
2023/10/29 05:36:34;;;;;;;;;;;11.50;99.90;;;;;;4989548;28;19975;-74
2023/10/29 05:39:02;;;;;;;;;;;11.40;99.90;;;;;;5026233;28;19928;-72
2023/10/29 05:41:28;;;;;;;;;;;11.40;99.90;;;;;;4998593;28;19921;-71
2023/10/29 05:43:54;;;;;;;;;;;11.40;99.90;;;;;;5033895;28;19925;-72
2023/10/29 05:46:22;;;;;;;;;;;11.40;99.90;;;;;;5021852;28;19929;-72
2023/10/29 05:48:48;;;;;;;;;;;11.50;99.90;;;;;;5033433;28;19935;-72
2023/10/29 05:51:17;;;;;;;;;;;11.50;99.90;;;;;;4993654;28;19929;-72
2023/10/29 05:53:43;;;;;;;;;;;11.50;99.90;;;;;;5016099;28;19921;-72
2023/10/29 05:56:09;;;;;;;;;;;11.60;99.90;;;;;;4996704;28;20422;-71
2023/10/29 05:58:35;;;;;;;;;;;11.60;99.90;;;;;;5004263;28;19930;-70
2023/10/29 06:01:01;;;;;;;;;;;11.60;99.90;;;;;;5016129;28;19925;-71
2023/10/29 06:03:27;;;;;;;;;;;11.60;99.90;;;;;;5057572;28;19925;-70
2023/10/29 06:05:54;;;;;;;;;;;11.70;99.90;;;;;;5008507;28;19924;-72
2023/10/29 06:08:21;;;;;;;;;;;11.70;99.90;;;;;;5029818;28;19929;-70
2023/10/29 06:10:48;;;;;;;;;;;11.70;99.90;;;;;;5029622;28;20288;-70
2023/10/29 06:13:14;;;;;;;;;;;11.60;99.90;;;;;;5021913;28;19929;-71
2023/10/29 06:15:40;;;;;;;;;;;11.70;99.90;;;;;;5018628;28;19925;-71
2023/10/29 06:18:06;;;;;;;;;;;11.70;99.90;;;;;;4998060;28;19932;-71
2023/10/29 06:20:32;;;;;;;;;;;11.70;99.90;;;;;;5000790;28;19935;-69
2023/10/29 06:22:59;;;;;;;;;;;11.80;99.90;;;;;;5032256;28;20419;-69
2023/10/29 06:25:26;;;;;;;;;;;11.70;99.90;;;;;;5000618;28;19928;-70
2023/10/29 06:27:52;;;;;;;;;;;11.80;99.90;;;;;;5007545;28;19926;-70
2023/10/29 06:30:18;;;;;;;;;;;11.80;99.90;;;;;;4983395;28;19925;-69
2023/10/29 06:32:45;;;;;;;;;;;11.80;99.90;;;;;;5028902;28;19936;-70
2023/10/29 06:35:12;;;;;;;;;;;11.80;99.90;;;;;;5000493;28;20391;-70
2023/10/29 06:37:37;;;;;;;;;;;11.90;99.90;;;;;;5017290;28;19926;-69
2023/10/29 06:40:04;;;;;;;;;;;11.90;99.90;;;;;;5008809;28;19925;-70
2023/10/29 06:42:29;;;;;;;;;;;11.90;99.90;;;;;;5020083;28;19928;-70
2023/10/29 06:44:55;;;;;;;;;;;12.00;99.90;;;;;;4989012;28;20656;-70
2023/10/29 06:47:21;;;;;;;;;;;12.00;99.90;;;;;;5027773;28;19930;-70
2023/10/29 06:49:47;;;;;;;;;;;12.00;99.90;;;;;;5005741;28;19932;-70
2023/10/29 06:52:13;;;;;;;;;;;12.00;99.90;;;;;;4984403;28;19932;-69
2023/10/29 06:54:39;;;;;;;;;;;12.00;99.90;;;;;;5003331;28;19928;-69
2023/10/29 06:57:05;;;;;;;;;;;12.10;99.90;;;;;;5010925;28;19928;-70
2023/10/29 06:59:33;;;;;;;;;;;12.20;99.90;;;;;;5021096;28;19974;-70
2023/10/29 07:01:59;;;;;;;;;;;12.20;99.90;;;;;;5012434;28;19929;-70
2023/10/29 07:04:25;;;;;;;;;;;12.30;99.90;;;;;;5023808;28;19929;-70
2023/10/29 07:06:51;;;;;;;;;;;12.30;99.90;;;;;;5029247;28;19974;-70
2023/10/29 07:09:18;;;;;;;;;;;12.30;99.90;;;;;;5022860;28;19921;-70
2023/10/29 07:11:44;;;;;;;;;;;12.40;99.90;;;;;;4994271;28;20667;-71
2023/10/29 07:14:11;;;;;;;;;;;12.40;99.90;;;;;;5019510;28;20308;-70
2023/10/29 07:16:37;;;;;;;;;;;12.50;99.90;;;;;;4994489;28;19941;-70
2023/10/29 07:19:04;;;;;;;;;;;12.50;99.90;;;;;;5012926;28;19951;-70
2023/10/29 07:21:30;;;;;;;;;;;12.50;99.90;;;;;;5000652;28;19929;-70
2023/10/29 07:23:56;;;;;;;;;;;12.50;99.90;;;;;;5013004;28;19933;-70
2023/10/29 07:26:22;;;;;;;;;;;12.50;99.90;;;;;;4981903;28;19972;-70
2023/10/29 07:28:47;;;;;;;;;;;12.50;99.90;;;;;;5007037;28;19931;-69
2023/10/29 07:31:14;;;;;;;;;;;12.50;99.90;;;;;;5026230;28;19921;-70
2023/10/29 07:33:40;;;;;;;;;;;12.60;99.90;;;;;;5054739;28;20316;-69
2023/10/29 07:36:07;;;;;;;;;;;12.60;99.90;;;;;;4993427;28;19996;-70
2023/10/29 07:38:32;;;;;;;;;;;12.70;99.90;;;;;;5007705;28;20300;-70
2023/10/29 07:40:58;;;;;;;;;;;12.70;99.90;;;;;;5001028;28;19920;-71
2023/10/29 07:43:25;;;;;;;;;;;12.70;99.90;;;;;;5034126;28;19921;-69
2023/10/29 07:45:52;;;;;;;;;;;12.70;99.90;;;;;;5002144;28;19924;-69
2023/10/29 07:48:20;;;;;;;;;;;12.90;99.90;;;;;;5039414;28;19932;-69
2023/10/29 07:50:49;;;;;;;;;;;12.90;99.90;;;;;;4977519;28;19943;-70
2023/10/29 07:53:15;;;;;;;;;;;12.90;99.90;;;;;;5009152;28;19933;-69
2023/10/29 07:55:41;;;;;;;;;;;12.90;99.90;;;;;;4987454;28;19969;-70
2023/10/29 07:58:07;;;;;;;;;;;12.90;99.90;;;;;;5006196;28;20316;-68
2023/10/29 08:00:34;;;;;;;;;;;12.90;99.90;;;;;;4978107;28;19920;-69
2023/10/29 08:03:00;;;;;;;;;;;12.90;99.90;;;;;;5039130;28;20715;-69
2023/10/29 08:05:26;;;;;;;;;;;12.90;99.90;;;;;;5009908;28;19935;-70
2023/10/29 08:07:52;;;;;;;;;;;12.80;99.90;;;;;;5013449;28;20019;-71
2023/10/29 08:10:18;;;;;;;;;;;12.90;99.90;;;;;;4984888;28;19924;-69
2023/10/29 08:12:44;;;;;;;;;;;12.80;99.90;;;;;;5041863;28;19929;-68
2023/10/29 08:15:12;;;;;;;;;;;12.80;99.90;;;;;;4999816;28;19936;-69
2023/10/29 08:17:39;;;;;;;;;;;12.80;99.90;;;;;;5049445;28;20004;-69
2023/10/29 08:20:06;;;;;;;;;;;12.80;99.90;;;;;;4990956;28;19925;-71
2023/10/29 08:22:32;;;;;;;;;;;12.80;99.90;;;;;;5034079;28;19920;-68
2023/10/29 08:24:59;;;;;;;;;;;12.80;99.90;;;;;;5022025;28;19933;-70
2023/10/29 08:27:25;;;;;;;;;;;12.80;99.90;;;;;;5012379;28;20308;-69
2023/10/29 08:29:54;;;;;;;;;;;12.80;99.90;;;;;;4985318;28;19932;-69
2023/10/29 08:32:20;;;;;;;;;;;12.80;99.90;;;;;;4993827;28;19948;-71
2023/10/29 08:34:46;;;;;;;;;;;12.80;99.90;;;;;;5051142;28;19925;-70
2023/10/29 08:37:12;;;;;;;;;;;12.80;99.90;;;;;;5006633;28;19924;-70
2023/10/29 08:39:37;;;;;;;;;;;12.80;99.90;;;;;;5018810;28;20362;-69
2023/10/29 08:42:04;;;;;;;;;;;12.90;99.90;;;;;;5006345;28;20327;-70
2023/10/29 08:44:29;;;;;;;;;;;12.90;99.90;;;;;;5000776;28;19933;-65
2023/10/29 08:46:56;;;;;;;;;;;12.90;99.90;;;;;;4991920;28;19924;-70
2023/10/29 08:49:22;;;;;;;;;;;12.90;99.90;;;;;;5027044;28;19928;-69
2023/10/29 08:51:47;;;;;;;;;;;12.90;99.90;;;;;;5008964;28;19924;-68
2023/10/29 08:54:13;;;;;;;;;;;12.90;99.90;;;;;;5023874;28;19921;-69
2023/10/29 08:56:39;;;;;;;;;;;12.90;99.90;;;;;;4996879;28;20359;-69
2023/10/29 08:59:05;;;;;;;;;;;12.90;99.90;;;;;;5005003;28;20354;-70
2023/10/29 09:01:32;;;;;;;;;;;13.00;99.90;;;;;;4995172;28;19929;-70
2023/10/29 09:03:58;;;;;;;;;;;13.10;99.90;;;;;;5020700;28;19926;-70
2023/10/29 09:06:25;;;;;;;;;;;13.20;99.90;;;;;;5006670;28;20423;-70
2023/10/29 09:08:51;;;;;;;;;;;13.30;99.90;;;;;;5031748;28;19940;-72
2023/10/29 09:11:17;;;;;;;;;;;13.40;99.90;;;;;;5007791;28;19932;-70
2023/10/29 09:13:43;;;;;;;;;;;13.60;99.90;;;;;;5032172;28;19996;-70
2023/10/29 09:16:09;;;;;;;;;;;13.60;99.90;;;;;;4996687;28;19929;-70
2023/10/29 09:18:35;;;;;;;;;;;13.60;99.90;;;;;;5008180;28;19922;-69
2023/10/29 09:21:01;;;;;;;;;;;13.50;99.90;;;;;;4997504;28;19928;-70
2023/10/29 09:23:30;;;;;;;;;;;13.50;99.90;;;;;;5015413;28;19936;-69
2023/10/29 09:25:57;;;;;;;;;;;13.60;99.90;;;;;;5008406;28;19928;-70
2023/10/29 09:28:23;;;;;;;;;;;13.50;99.90;;;;;;5010488;28;19925;-69
2023/10/29 09:30:49;;;;;;;;;;;13.50;99.90;;;;;;5000420;28;20407;-70
2023/10/29 09:33:15;;;;;;;;;;;13.50;99.90;;;;;;5018882;28;19928;-69
2023/10/29 09:35:41;;;;;;;;;;;13.50;99.90;;;;;;4992143;28;20016;-71
2023/10/29 09:38:07;;;;;;;;;;;13.50;99.90;;;;;;5017116;28;20666;-69
2023/10/29 09:40:33;;;;;;;;;;;13.60;99.90;;;;;;4991115;28;19924;-69
2023/10/29 09:43:08;;;;;;;;;;;13.60;99.90;;;;;;5031895;28;20396;-70
2023/10/29 09:45:38;;;;;;;;;;;13.70;99.90;;;;;;5024137;28;19925;-70
2023/10/29 09:48:04;;;;;;;;;;;13.90;99.90;;;;;;5027754;28;19917;-69
2023/10/29 09:50:30;;;;;;;;;;;13.90;99.90;;;;;;5003937;28;19921;-69
2023/10/29 09:52:57;;;;;;;;;;;14.00;99.90;;;;;;5004024;28;20385;-68
2023/10/29 09:55:23;;;;;;;;;;;14.10;99.90;;;;;;4994224;28;19930;-70
2023/10/29 09:57:49;;;;;;;;;;;14.20;99.90;;;;;;5000182;28;19922;-69
2023/10/29 10:00:16;;;;;;;;;;;14.30;99.90;;;;;;4977213;28;19925;-68
2023/10/29 10:02:51;;;;;;;;;;;14.20;99.90;;;;;;5015900;28;19930;-69
2023/10/29 10:05:23;;;;;;;;;;;14.20;99.90;;;;;;4986696;28;19929;-69
2023/10/29 10:07:54;;;;;;;;;;;14.20;99.90;;;;;;5031540;28;19929;-70
2023/10/29 10:10:21;;;;;;;;;;;14.20;99.90;;;;;;5001769;28;19925;-72
2023/10/29 10:12:48;;;;;;;;;;;14.20;99.90;;;;;;5017435;28;19929;-71
2023/10/29 10:15:15;;;;;;;;;;;14.20;99.90;;;;;;4978130;28;20349;-69
2023/10/29 10:17:50;;;;;;;;;;;14.20;99.90;;;;;;5018329;28;20388;-70
2023/10/29 10:20:19;;;;;;;;;;;14.30;99.90;;;;;;4985802;28;20490;-69
2023/10/29 10:22:45;;;;;;;;;;;14.30;99.90;;;;;;5045231;28;19928;-68
2023/10/29 10:25:18;;;;;;;;;;;14.40;99.90;;;;;;5000027;28;20407;-69
2023/10/29 10:27:48;;;;;;;;;;;14.40;99.90;;;;;;5016914;28;19928;-69
2023/10/29 10:30:28;;;;;;;;;;;14.40;99.90;;;;;;5014435;28;19941;-68
2023/10/29 10:32:54;;;;;;;;;;;14.20;99.90;;;;;;5028432;28;19921;-69
2023/10/29 10:35:20;;;;;;;;;;;14.20;99.90;;;;;;5005388;28;19932;-68
2023/10/29 10:37:54;;;;;;;;;;;14.10;99.90;;;;;;5008636;28;19928;-67
2023/10/29 10:40:26;;;;;;;;;;;14.00;99.90;;;;;;5028712;28;19920;-69
2023/10/29 10:42:55;;;;;;;;;;;14.10;99.90;;;;;;5043407;28;19924;-68
2023/10/29 10:45:26;;;;;;;;;;;14.10;99.90;;;;;;4979860;28;19933;-68
2023/10/29 10:47:56;;;;;;;;;;;14.10;99.90;;;;;;5013988;28;19922;-69
2023/10/29 10:50:23;;;;;;;;;;;14.20;99.90;;;;;;4980199;28;19924;-67
2023/10/29 10:52:50;;;;;;;;;;;14.10;99.90;;;;;;5005879;28;19921;-66
2023/10/29 10:55:17;;;;;;;;;;;14.20;99.90;;;;;;4977910;28;19937;-67
2023/10/29 10:57:44;;;;;;;;;;;14.20;99.90;;;;;;5007278;28;19933;-68
2023/10/29 11:00:13;;;;;;;;;;;14.20;99.90;;;;;;4989539;28;19937;-69
2023/10/29 11:02:40;;;;;;;;;;;14.20;99.90;;;;;;5009835;28;19921;-66
2023/10/29 11:05:09;;;;;;;;;;;14.20;99.90;;;;;;5010001;28;19949;-67
2023/10/29 11:07:36;;;;;;;;;;;14.20;99.90;;;;;;4996161;28;19922;-67
2023/10/29 11:10:02;;;;;;;;;;;14.10;99.90;;;;;;4969639;28;19921;-68
2023/10/29 11:12:38;;;;;;;;;;;14.20;99.90;;;;;;5004761;28;19926;-68
2023/10/29 11:15:14;;;;;;;;;;;14.20;99.90;;;;;;4998343;28;20311;-67
2023/10/29 11:17:59;;;;;;;;;;;14.30;99.90;;;;;;4990265;28;19925;-68
2023/10/29 11:20:49;;;;;;;;;;;14.40;99.90;;;;;;4985463;28;20419;-69
2023/10/29 11:23:16;;;;;;;;;;;14.50;99.90;;;;;;5017616;28;19932;-66
2023/10/29 11:25:42;;;;;;;;;;;14.50;99.90;;;;;;4984220;28;19924;-66
2023/10/29 11:28:31;;;;;;;;;;;14.60;99.90;;;;;;5009524;28;19930;-67
2023/10/29 11:31:15;;;;;;;;;;;14.60;99.90;;;;;;4985633;28;19928;-68
2023/10/29 11:33:45;;;;;;;;;;;14.60;99.90;;;;;;5055884;28;19922;-68
2023/10/29 11:36:33;;;;;;;;;;;14.60;99.90;;;;;;4991553;28;20346;-68
2023/10/29 11:39:23;;;;;;;;;;;14.60;99.90;;;;;;5004162;28;19922;-67
2023/10/29 11:41:49;;;;;;;;;;;14.50;99.90;;;;;;4988968;28;20276;-67
2023/10/29 11:44:18;;;;;;;;;;;14.50;99.90;;;;;;5008773;28;19921;-68
2023/10/29 11:47:02;;;;;;;;;;;14.50;99.90;;;;;;5010053;28;19928;-66
2023/10/29 11:49:30;;;;;;;;;;;14.50;99.90;;;;;;5036794;28;19925;-67
2023/10/29 11:52:02;;;;;;;;;;;14.50;99.90;;;;;;5036177;28;20503;-67
2023/10/29 11:54:28;;;;;;;;;;;14.50;99.90;;;;;;5032077;28;20489;-66
2023/10/29 11:56:57;;;;;;;;;;;14.60;99.90;;;;;;4992153;28;19925;-68
2023/10/29 11:59:23;;;;;;;;;;;14.50;99.90;;;;;;5003981;28;19921;-69
2023/10/29 12:01:49;;;;;;;;;;;14.40;99.90;;;;;;4986109;28;19925;-68
2023/10/29 12:04:15;;;;;;;;;;;14.40;99.90;;;;;;5023274;28;19968;-67
2023/10/29 12:06:43;;;;;;;;;;;14.40;99.90;;;;;;5006153;28;19928;-68
2023/10/29 12:09:15;;;;;;;;;;;14.40;99.90;;;;;;5023730;28;19921;-68
2023/10/29 12:11:41;;;;;;;;;;;14.40;99.90;;;;;;5017649;28;19932;-67
2023/10/29 12:14:07;;;;;;;;;;;14.40;99.90;;;;;;5025716;28;19982;-68
2023/10/29 12:16:34;;;;;;;;;;;14.50;99.90;;;;;;5017504;28;19928;-67
2023/10/29 12:19:02;;;;;;;;;;;14.60;99.90;;;;;;5025901;28;20280;-68
2023/10/29 12:21:28;;;;;;;;;;;14.60;99.90;;;;;;5005486;28;19932;-67
2023/10/29 12:23:57;;;;;;;;;;;14.50;99.90;;;;;;5026699;28;20297;-67
2023/10/29 12:26:23;;;;;;;;;;;14.50;99.90;;;;;;5011809;28;19928;-67
2023/10/29 12:28:49;;;;;;;;;;;14.50;99.90;;;;;;5015655;28;20414;-67
2023/10/29 12:31:23;;;;;;;;;;;14.40;99.90;;;;;;5003511;28;20346;-68
2023/10/29 12:33:55;;;;;;;;;;;14.60;99.90;;;;;;5028720;28;19929;-68
2023/10/29 12:36:23;;;;;;;;;;;14.60;99.90;;;;;;5041455;28;20029;-68
2023/10/29 12:38:49;;;;;;;;;;;14.70;99.90;;;;;;5028871;28;19924;-68
2023/10/29 12:41:15;;;;;;;;;;;14.80;99.90;;;;;;5008940;28;19928;-67
2023/10/29 12:43:44;;;;;;;;;;;14.80;99.90;;;;;;5028081;28;19921;-69
2023/10/29 12:46:11;;;;;;;;;;;14.80;99.90;;;;;;5028875;28;20406;-68
2023/10/29 12:48:59;;;;;;;;;;;14.60;99.90;;;;;;5025196;28;20398;-68
2023/10/29 12:51:31;;;;;;;;;;;14.50;99.90;;;;;;4986543;28;19921;-68
2023/10/29 12:54:17;;;;;;;;;;;14.50;99.90;;;;;;5005030;28;19936;-68
2023/10/29 12:56:49;;;;;;;;;;;14.40;99.90;;;;;;4978796;28;20403;-67
2023/10/29 12:59:15;;;;;;;;;;;14.40;99.90;;;;;;4991441;28;19937;-67
2023/10/29 13:01:48;;;;;;;;;;;14.40;99.90;;;;;;4992376;28;20291;-68
2023/10/29 13:04:13;;;;;;;;;;;14.40;99.90;;;;;;5041324;28;19954;-67
2023/10/29 13:06:39;;;;;;;;;;;14.40;99.90;;;;;;4981490;28;19928;-67
2023/10/29 13:09:08;;;;;;;;;;;14.50;99.90;;;;;;5009053;28;19932;-68
2023/10/29 13:11:34;;;;;;;;;;;14.60;99.90;;;;;;5007366;28;21603;-68
2023/10/29 13:14:00;;;;;;;;;;;14.60;99.90;;;;;;5027228;28;19925;-68
2023/10/29 13:16:26;;;;;;;;;;;14.60;99.90;;;;;;5006839;28;19928;-67
2023/10/29 13:18:54;;;;;;;;;;;14.60;99.90;;;;;;5034614;28;20464;-67
2023/10/29 13:21:20;;;;;;;;;;;14.50;99.90;;;;;;4995773;28;19925;-67
2023/10/29 13:23:46;;;;;;;;;;;14.40;99.90;;;;;;4994086;28;19948;-68
2023/10/29 13:26:12;;;;;;;;;;;14.30;99.90;;;;;;4988183;28;20376;-68
2023/10/29 13:28:38;;;;;;;;;;;14.30;99.90;;;;;;5010944;28;19936;-67
2023/10/29 13:31:04;;;;;;;;;;;14.30;99.90;;;;;;5004121;28;19924;-67
2023/10/29 13:33:30;;;;;;;;;;;14.20;99.90;;;;;;5039613;28;19925;-68
2023/10/29 13:35:56;;;;;;;;;;;14.20;99.90;;;;;;4999929;28;19925;-69
2023/10/29 13:38:24;;;;;;;;;;;14.20;99.90;;;;;;5008028;28;19926;-70
2023/10/29 13:40:50;;;;;;;;;;;14.20;99.90;;;;;;4998599;28;20383;-70
2023/10/29 13:43:16;;;;;;;;;;;14.30;99.90;;;;;;5040875;28;19930;-69
2023/10/29 13:45:41;;;;;;;;;;;15.70;99.90;;;;;;4998416;28;19939;-68
2023/10/29 13:48:07;;;;;;;;;;;17.40;99.90;;;;;;5012330;28;20017;-70
2023/10/29 13:50:37;;;;;;;;;;;18.40;99.90;;;;;;4987908;28;19934;-70
2023/10/29 13:53:03;;;;;;;;;;;19.00;99.90;;;;;;5013548;28;19925;-68
2023/10/29 13:55:29;;;;;;;;;;;19.80;99.90;;;;;;4991123;28;19935;-68
2023/10/29 13:57:58;;;;;;;;;;;20.20;98.60;;;;;;5062990;28;19996;-69
2023/10/29 14:00:25;;;;;;;;;;;20.20;97.40;;;;;;4996234;28;20419;-71
2023/10/29 14:02:51;;;;;;;;;;;19.80;98.00;;;;;;5013668;28;19925;-68
2023/10/29 14:05:17;;;;;;;;;;;18.20;98.80;;;;;;4965089;28;19933;-69
2023/10/29 14:07:44;;;;;;;;;;;16.90;99.90;;;;;;5009331;28;19932;-70
2023/10/29 14:10:10;;;;;;;;;;;16.10;99.90;;;;;;4983250;28;19925;-70
2023/10/29 14:12:36;;;;;;;;;;;15.60;99.90;;;;;;5029905;28;19944;-70
2023/10/29 14:15:02;;;;;;;;;;;15.10;99.90;;;;;;4993557;28;19925;-70
2023/10/29 14:17:28;;;;;;;;;;;14.80;99.90;;;;;;5016014;28;19926;-69